x

Molasses Reef, Fl (mlrf1) Weather Station

7:00pm - Sun 1st Mar 2015 All times are EST. -5 hours from GMT.

  • Wind
    17mph, 18mph gusts
  • Sea Temp 77°f
  • Air Temp 75°f
  • Sea Pressure 1023.8mb
  • Molasses Reef, Fl
  • Molasses Reef, Fl

More Historic Weather Station data

Upgrade to MSW Pro to gain access to the past 30 days of data for over 8000 Wavebouys and Weather Stations around the globe.

Join Pro

Comparision Forecast

View Surf forecast
   
Sun 03/01 7:00pm 17 18 mph 1023.8mb 77f 75f
6:00pm 18 21 mph 1023.8mb 77f 75f
5:00pm 15 16 mph 1023.7mb 77f 76f
4:00pm 15 16 mph 1023.3mb 77f 76f
3:00pm 15
mph
1023.5mb 77f 76f
2:00pm 14 15 mph 1024mb 77f 76f
1:00pm 15 17 mph 1024.8mb 77f 76f
12:00pm 16 18 mph 1025.4mb 77f 76f
11:00am 15 17 mph 1026mb 76f 76f
10:00am 16 18 mph 1025.8mb 76f 76f
9:00am 15 16 mph 1025.5mb 76f 76f
8:00am 20 21 mph 1025.1mb 76f 75f
7:00am 18 20 mph 1024.6mb 76f 75f
6:00am 18 21 mph 1023.7mb 76f 75f
5:00am 20 22 mph 1023.2mb 76f 75f
4:00am 18 21 mph 1023mb 76f 75f
3:00am 18 21 mph 1023.1mb 76f 76f
2:00am 22 23 mph 1023.4mb 76f 76f
1:00am 20 22 mph 1023.7mb 76f 76f
12:00am 22 24 mph 1024.2mb 76f 76f
Sat 02/28 11:00pm 21 24 mph 1024.3mb 76f 76f
10:00pm 23 24 mph 1024.1mb 76f 76f
9:00pm 18 21 mph 1023.9mb 76f 76f
8:00pm 16 17 mph 1023.3mb 77f 76f
7:00pm 16 18 mph 1022.7mb 77f 76f
6:00pm 16 17 mph 1022.4mb 77f 76f
5:00pm 13 15 mph 1022.1mb 77f 77f
4:00pm 13 14 mph 1021.8mb 77f 76f
3:00pm 13 14 mph 1022.1mb 77f 76f
2:00pm 15 16 mph 1022.5mb 76f 77f
1:00pm 14
mph
1023.2mb 76f 77f
12:00pm 14 15 mph 1023.9mb 76f 76f
11:00am 16 18 mph 1024.2mb 75f 77f
10:00am 16 17 mph 1023.9mb 75f 76f
9:00am 14 16 mph 1023.6mb 74f 76f
8:00am 21 23 mph 1022.6mb 74f 76f
7:00am 18 20 mph 1021.8mb 74f 76f
6:00am 16 17 mph 1021.2mb 74f 75f
5:00am 14 15 mph 1020.5mb 74f 75f
4:00am 16 20 mph 1020.2mb 74f 75f
3:00am 14 15 mph 1020.2mb 74f 75f
2:00am 13 14 mph 1020.3mb 74f 75f
1:00am 11 13 mph 1020.8mb 74f 74f
12:00am 14 15 mph 1020.9mb 74f 73f
Fri 02/27 11:00pm 14
mph
1021mb 74f 72f
10:00pm 15 16 mph 1020.9mb 74f 72f
9:00pm 17 20 mph 1020.4mb 74f 72f
8:00pm 25 28 mph 1019.2mb 75f 72f
7:00pm 20 21 mph 1018.6mb 75f 73f
6:00pm 14 16 mph 1018.3mb 75f 74f
5:00pm 17 20 mph 1017.8mb 74f 74f
4:00pm 15 16 mph 1018mb 74f 74f
3:00pm 14 16 mph 1018.3mb 74f 73f
2:00pm 13 14 mph 1018.6mb 74f 73f
1:00pm 14
mph
1018.9mb 74f 73f
12:00pm 8 9 mph 1019.5mb 74f 73f
11:00am 10
mph
1019.8mb 74f 72f
10:00am 13 14 mph 1019.4mb 74f 73f
9:00am 14
mph
1018.9mb 73f 72f
8:00am 14 15 mph 1018mb 73f 72f
7:00am 10 11 mph 1017.1mb 73f 72f
6:00am 10 11 mph 1016.2mb 73f 72f
5:00am 11 13 mph 1015.4mb 74f 71f
4:00am 8 10 mph 1015.1mb 74f 74f
3:00am  -  1 mph 1015.3mb 73f 75f
2:00am 2
mph
1015.5mb 73f 75f
1:00am  -  1 mph 1015.7mb 73f 75f
12:00am 5 6 mph 1015.9mb 73f 76f
Thu 02/26 11:00pm 5
mph
1016mb 73f 76f
10:00pm 3 5 mph 1015.7mb 73f 76f
9:00pm 5
mph
1015.3mb 73f 76f
8:00pm 6
mph
1014.5mb 73f 77f
7:00pm 6
mph
1013.7mb 73f 76f
6:00pm 6 7 mph 1013.2mb 74f 75f
5:00pm 10 11 mph 1012.5mb 74f 76f
4:00pm 14 15 mph 1012.2mb 74f 76f
3:00pm 17 18 mph 1011.7mb 74f 77f
2:00pm 22 24 mph 1011.8mb 74f 76f
1:00pm 21 23 mph 1012.2mb 74f 76f
12:00pm 22 24 mph 1012.5mb 74f 76f
11:00am 23 25 mph 1013.1mb 73f 76f
10:00am 22 23 mph 1012.9mb 74f 76f
9:00am 20 21 mph 1013.1mb 73f 76f
8:00am 21 23 mph 1012.3mb 73f 76f
7:00am 18 20 mph 1011.8mb 73f 75f
6:00am 21 23 mph 1011.2mb 73f 75f
5:00am 18 21 mph 1010.9mb 73f 75f
4:00am 21 24 mph 1010.3mb 73f 76f
3:00am 26 29 mph 1009.9mb 73f 76f
2:00am 29 32 mph 1010.5mb 74f 76f